createdAt,value
2022-11-14T00:00:59.200Z,62.53
2022-11-14T00:02:01.127Z,69.75
2022-11-14T00:03:06.233Z,62.63
2022-11-14T00:04:08.107Z,65.13
2022-11-14T00:05:10.034Z,55.83
2022-11-14T00:06:12.192Z,59.65
2022-11-14T00:07:14.595Z,87.53
2022-11-14T00:08:22.632Z,83.28
2022-11-14T00:09:28.825Z,68.68
2022-11-14T00:10:30.978Z,98.78
2022-11-14T00:11:32.920Z,69.18
2022-11-14T00:12:34.788Z,83.28
2022-11-14T00:13:36.985Z,95.78
2022-11-14T00:14:38.814Z,85.20
2022-11-14T00:15:40.741Z,85.90
2022-11-14T00:16:43.134Z,92.15
2022-11-14T00:17:45.067Z,59.85
2022-11-14T00:18:47.428Z,77.57
2022-11-14T00:19:49.543Z,74.35
2022-11-14T00:20:53.163Z,49.85
2022-11-14T00:21:55.251Z,53.28
2022-11-14T00:22:57.824Z,75.07
2022-11-14T00:23:59.556Z,87.05
2022-11-14T00:25:01.673Z,51.50
2022-11-14T00:26:03.650Z,86.22
2022-11-14T00:27:05.497Z,93.78
2022-11-14T00:28:07.445Z,72.78
2022-11-14T00:29:11.748Z,60.63
2022-11-14T00:30:13.804Z,47.22
2022-11-14T00:31:15.691Z,47.28
2022-11-14T00:32:17.632Z,47.30
2022-11-14T00:33:21.050Z,57.65
2022-11-14T00:34:22.978Z,47.63
2022-11-14T00:35:24.830Z,76.78
2022-11-14T00:36:27.019Z,76.70
2022-11-14T00:37:28.823Z,59.08
2022-11-14T00:38:30.834Z,68.70
2022-11-14T00:39:32.834Z,77.53
2022-11-14T00:40:34.563Z,54.10
2022-11-14T00:41:36.504Z,103.82
2022-11-14T00:42:38.412Z,42.78
2022-11-14T00:43:40.378Z,60.83
2022-11-14T00:44:42.388Z,72.53
2022-11-14T00:45:45.092Z,56.45
2022-11-14T00:46:46.994Z,82.78
2022-11-14T00:47:49.033Z,71.38
2022-11-14T00:48:50.953Z,67.32
2022-11-14T00:49:52.734Z,73.43
2022-11-14T00:50:54.488Z,62.80
2022-11-14T00:51:56.370Z,79.68
2022-11-14T00:52:58.120Z,71.90
2022-11-14T00:54:00.007Z,86.03
2022-11-14T00:55:02.229Z,60.67
2022-11-14T00:56:04.644Z,100.55
2022-11-14T00:57:06.662Z,45.47
2022-11-14T00:58:08.579Z,81.43
2022-11-14T00:59:10.360Z,46.45
2022-11-14T01:00:14.119Z,90.20
2022-11-14T01:01:16.188Z,102.25
2022-11-14T01:02:18.465Z,93.15
2022-11-14T01:03:20.235Z,90.32
2022-11-14T01:04:22.630Z,114.15
2022-11-14T01:05:25.859Z,72.38
2022-11-14T01:06:27.600Z,53.00
2022-11-14T01:07:29.694Z,45.28
2022-11-14T01:08:32.491Z,56.00
2022-11-14T01:09:35.980Z,69.38
2022-11-14T01:10:44.317Z,94.95
2022-11-14T01:11:46.510Z,64.88
2022-11-14T01:12:48.570Z,92.78
2022-11-14T01:13:50.735Z,96.10
2022-11-14T01:14:52.558Z,67.35
2022-11-14T01:15:55.104Z,62.47
2022-11-14T01:16:57.075Z,65.40
2022-11-14T01:17:59.554Z,99.68
2022-11-14T01:19:02.257Z,74.32
2022-11-14T01:20:05.139Z,74.47
2022-11-14T01:21:11.229Z,74.88
2022-11-14T01:22:13.185Z,58.28
2022-11-14T01:23:16.690Z,93.72
2022-11-14T01:24:18.584Z,75.70
2022-11-14T01:25:20.377Z,84.32
2022-11-14T01:26:22.281Z,84.72
2022-11-14T01:27:25.254Z,115.65
2022-11-14T01:28:27.538Z,96.95
2022-11-14T01:29:30.073Z,77.65
2022-11-14T01:30:32.169Z,73.00
2022-11-14T01:31:34.298Z,57.13
2022-11-14T01:32:36.539Z,90.00
2022-11-14T01:33:38.837Z,74.00
2022-11-14T01:34:40.973Z,53.38
2022-11-14T01:35:43.149Z,49.13
2022-11-14T01:36:45.182Z,60.80
2022-11-14T01:37:46.974Z,48.38
2022-11-14T01:38:53.010Z,70.70
2022-11-14T01:39:54.933Z,50.75
2022-11-14T01:40:56.734Z,48.88
2022-11-14T01:41:58.804Z,69.60
2022-11-14T01:43:18.977Z,56.20
2022-11-14T01:44:52.922Z,59.20
2022-11-14T01:46:01.019Z,46.65
2022-11-14T01:47:02.979Z,58.55
2022-11-14T01:48:05.052Z,63.85
2022-11-14T01:49:20.737Z,44.05
2022-11-14T01:50:22.643Z,40.65
2022-11-14T01:51:36.348Z,35.80
2022-11-14T01:52:40.213Z,63.50
2022-11-14T01:53:43.180Z,60.55
2022-11-14T01:54:52.493Z,42.83
2022-11-14T01:55:58.327Z,38.25
2022-11-14T01:57:03.347Z,75.90
2022-11-14T01:58:05.579Z,45.58
2022-11-14T01:59:10.733Z,33.42
2022-11-14T02:00:13.477Z,80.63
2022-11-14T02:01:15.251Z,42.38
2022-11-14T02:02:22.678Z,69.57
2022-11-14T02:03:25.128Z,49.80
2022-11-14T02:04:39.135Z,42.17
2022-11-14T02:05:42.989Z,40.75
2022-11-14T02:06:46.042Z,37.42
2022-11-14T02:07:48.117Z,74.97
2022-11-14T02:08:51.747Z,44.75
2022-11-14T02:09:56.094Z,35.00
2022-11-14T02:10:58.273Z,40.50
2022-11-14T02:12:02.439Z,42.17
2022-11-14T02:13:04.322Z,38.70
2022-11-14T02:14:07.572Z,32.85
2022-11-14T02:15:10.501Z,35.40
2022-11-14T02:16:12.475Z,46.58
2022-11-14T02:17:31.918Z,35.75
2022-11-14T02:18:33.839Z,35.25
2022-11-14T02:19:45.955Z,34.25
2022-11-14T02:20:47.862Z,36.50
2022-11-14T02:21:49.690Z,30.90
2022-11-14T02:22:51.621Z,50.20
2022-11-14T02:23:53.353Z,34.05
2022-11-14T02:24:55.446Z,33.80
2022-11-14T02:25:57.716Z,30.30
2022-11-14T02:26:59.650Z,30.88
2022-11-14T02:28:02.644Z,37.22
2022-11-14T02:29:05.838Z,46.03
2022-11-14T02:30:12.307Z,37.58
2022-11-14T02:33:08.844Z,43.15
2022-11-14T02:34:02.422Z,23.00
2022-11-14T02:35:04.557Z,24.95
2022-11-14T02:36:06.902Z,19.55
2022-11-14T02:37:08.921Z,21.08
2022-11-14T02:38:10.874Z,19.42
2022-11-14T02:39:12.886Z,18.75
2022-11-14T02:40:14.872Z,16.55
2022-11-14T02:41:16.934Z,18.77
2022-11-14T02:42:18.889Z,24.63
2022-11-14T02:43:21.666Z,36.20
2022-11-14T02:44:23.497Z,24.25
2022-11-14T02:45:26.002Z,22.27
2022-11-14T02:46:27.803Z,17.02
2022-11-14T02:47:29.731Z,20.73
2022-11-14T02:48:31.906Z,17.75
2022-11-14T02:49:34.347Z,33.65
2022-11-14T02:50:36.226Z,18.85
2022-11-14T02:51:38.203Z,25.45
2022-11-14T02:52:40.245Z,16.45
2022-11-14T02:53:42.193Z,22.77
2022-11-14T02:54:44.220Z,20.60
2022-11-14T02:55:46.124Z,28.80
2022-11-14T02:56:47.895Z,19.77
2022-11-14T02:57:49.828Z,19.88
2022-11-14T02:58:52.076Z,18.52
2022-11-14T02:59:54.279Z,19.88
2022-11-14T03:01:19.198Z,33.28
2022-11-14T03:02:18.077Z,20.02
2022-11-14T03:03:20.029Z,18.25
2022-11-14T03:04:23.576Z,25.48
2022-11-14T03:05:26.088Z,30.33
2022-11-14T03:06:28.140Z,18.80
2022-11-14T03:07:30.110Z,36.30
2022-11-14T03:08:32.307Z,24.27
2022-11-14T03:09:34.448Z,23.30
2022-11-14T03:10:36.624Z,36.53
2022-11-14T03:11:39.272Z,29.52
2022-11-14T03:12:41.183Z,37.80
2022-11-14T03:13:43.129Z,32.97
2022-11-14T03:14:45.415Z,25.38
2022-11-14T03:15:47.379Z,51.58
2022-11-14T03:16:49.301Z,40.97
2022-11-14T03:17:51.727Z,22.83
2022-11-14T03:18:53.896Z,25.70
2022-11-14T03:19:55.761Z,34.38
2022-11-14T03:20:57.692Z,20.67
2022-11-14T03:21:59.860Z,29.92
2022-11-14T03:23:01.869Z,21.10
2022-11-14T03:24:03.839Z,21.73
2022-11-14T03:25:06.236Z,36.20
2022-11-14T03:26:10.556Z,25.58
2022-11-14T03:27:12.386Z,24.90
2022-11-14T03:28:14.273Z,18.83
2022-11-14T03:29:16.264Z,26.90
2022-11-14T03:30:18.610Z,45.05
2022-11-14T03:31:20.555Z,39.97
2022-11-14T03:32:22.549Z,45.70
2022-11-14T03:33:24.564Z,62.83
2022-11-14T03:34:27.054Z,30.42
2022-11-14T03:35:28.792Z,38.13
2022-11-14T03:36:30.628Z,21.10
2022-11-14T03:37:32.536Z,20.98
2022-11-14T03:38:35.074Z,24.67
2022-11-14T03:39:37.319Z,24.98
2022-11-14T03:40:42.390Z,45.50
2022-11-14T03:41:44.321Z,24.95
2022-11-14T03:42:46.227Z,40.03
2022-11-14T03:43:48.115Z,23.92
2022-11-14T03:44:50.039Z,25.02
2022-11-14T03:45:52.212Z,26.10
2022-11-14T03:46:54.634Z,24.60
2022-11-14T03:47:57.642Z,31.92
2022-11-14T03:48:59.574Z,21.75
2022-11-14T03:50:01.373Z,23.23
2022-11-14T03:51:03.569Z,24.35
2022-11-14T03:52:05.548Z,21.42
2022-11-14T03:53:07.875Z,22.05
2022-11-14T03:54:09.830Z,25.40
2022-11-14T03:55:11.960Z,23.38
2022-11-14T03:56:14.203Z,20.92
2022-11-14T03:57:16.132Z,22.63
2022-11-14T03:58:18.346Z,22.17
2022-11-14T03:59:20.113Z,24.25
2022-11-14T04:00:22.129Z,24.00
2022-11-14T04:01:24.070Z,23.95
2022-11-14T04:02:26.017Z,20.17
2022-11-14T04:03:27.947Z,20.05
2022-11-14T04:04:29.883Z,20.55
2022-11-14T04:05:32.091Z,31.40
2022-11-14T04:06:34.027Z,20.17
2022-11-14T04:07:36.073Z,26.25
2022-11-14T04:08:40.792Z,28.73
2022-11-14T04:09:44.936Z,19.90
2022-11-14T04:10:49.913Z,20.65
2022-11-14T04:11:51.676Z,25.13
2022-11-14T04:12:54.284Z,23.73
2022-11-14T04:13:56.029Z,27.55
2022-11-14T04:14:58.125Z,18.90
2022-11-14T04:16:00.480Z,30.23
2022-11-14T04:17:02.352Z,16.92
2022-11-14T04:18:04.370Z,19.30
2022-11-14T04:19:06.377Z,24.92
2022-11-14T04:20:08.802Z,34.83
2022-11-14T04:21:10.692Z,21.02
2022-11-14T04:22:12.823Z,19.17
2022-11-14T04:23:14.701Z,20.40
2022-11-14T04:24:16.958Z,23.92
2022-11-14T04:25:18.867Z,23.10
2022-11-14T04:26:20.796Z,33.33
2022-11-14T04:27:22.565Z,29.60
2022-11-14T04:28:25.510Z,29.27
2022-11-14T04:29:27.516Z,21.88
2022-11-14T04:30:33.564Z,33.53
2022-11-14T04:31:36.697Z,35.83
2022-11-14T04:32:38.596Z,22.17
2022-11-14T04:33:40.949Z,25.45
2022-11-14T04:34:42.711Z,22.60
2022-11-14T04:35:44.523Z,29.48
2022-11-14T04:36:46.475Z,19.70
2022-11-14T04:37:48.626Z,28.92
2022-11-14T04:38:50.409Z,23.77
2022-11-14T04:39:52.303Z,29.77
2022-11-14T04:40:54.744Z,17.63
2022-11-14T04:41:56.630Z,28.80
2022-11-14T04:42:58.483Z,20.00
2022-11-14T04:44:00.436Z,25.45
2022-11-14T04:45:02.701Z,22.00
2022-11-14T04:46:04.741Z,12.88
2022-11-14T04:47:06.873Z,14.27
2022-11-14T04:48:08.627Z,15.18
2022-11-14T04:49:10.410Z,16.00
2022-11-14T04:50:12.356Z,17.55
2022-11-14T04:51:14.169Z,21.20
2022-11-14T04:52:15.920Z,13.95
2022-11-14T04:53:17.864Z,14.57
2022-11-14T04:54:19.606Z,12.32
2022-11-14T04:55:21.493Z,11.18
2022-11-14T04:56:25.507Z,10.65
2022-11-14T04:57:27.568Z,10.23
2022-11-14T04:58:29.725Z,11.88
2022-11-14T04:59:31.864Z,9.55
2022-11-14T05:00:33.724Z,10.15
2022-11-14T05:01:35.743Z,14.32
2022-11-14T05:02:37.655Z,11.43
2022-11-14T05:03:39.638Z,13.25
2022-11-14T05:04:41.585Z,14.45
2022-11-14T05:05:43.476Z,17.52
2022-11-14T05:06:45.499Z,15.38
2022-11-14T05:07:47.474Z,10.85
2022-11-14T05:08:49.300Z,12.27
2022-11-14T05:09:51.089Z,14.35
2022-11-14T05:10:53.004Z,19.58
2022-11-14T05:11:54.992Z,15.00
2022-11-14T05:12:56.865Z,14.65
2022-11-14T05:13:58.750Z,10.27
2022-11-14T05:15:00.784Z,21.05
2022-11-14T05:16:02.757Z,15.52
2022-11-14T05:17:04.720Z,16.90
2022-11-14T05:18:06.639Z,15.13
2022-11-14T05:19:08.538Z,13.75
2022-11-14T05:20:10.963Z,17.85
2022-11-14T05:21:16.340Z,21.20
2022-11-14T05:22:18.578Z,12.65
2022-11-14T05:23:22.908Z,15.70
2022-11-14T05:24:25.194Z,16.38
2022-11-14T05:25:51.673Z,15.15
2022-11-14T05:26:55.323Z,17.05
2022-11-14T05:27:57.527Z,22.35
2022-11-14T05:28:59.724Z,15.13
2022-11-14T05:30:01.638Z,19.95
2022-11-14T05:31:11.257Z,14.52
2022-11-14T05:32:16.301Z,18.23
2022-11-14T05:33:18.697Z,14.20
2022-11-14T05:34:20.692Z,13.85
2022-11-14T05:35:22.539Z,20.67
2022-11-14T05:36:24.471Z,16.35
2022-11-14T05:37:26.276Z,19.30
2022-11-14T05:38:28.968Z,16.75
2022-11-14T05:39:32.080Z,24.77
2022-11-14T05:40:34.103Z,20.48
2022-11-14T05:41:35.940Z,14.27
2022-11-14T05:42:38.107Z,13.95
2022-11-14T05:43:40.987Z,23.77
2022-11-14T05:44:42.899Z,13.98
2022-11-14T05:45:44.823Z,19.98
2022-11-14T05:46:46.963Z,14.07
2022-11-14T05:47:49.076Z,13.65
2022-11-14T05:48:51.032Z,14.88
2022-11-14T05:49:52.964Z,11.95
2022-11-14T05:50:56.384Z,13.88
2022-11-14T05:51:58.156Z,13.60
2022-11-14T05:53:00.021Z,13.85
2022-11-14T05:54:02.236Z,15.60
2022-11-14T05:55:04.232Z,15.55
2022-11-14T05:56:12.615Z,23.85
2022-11-14T05:57:14.550Z,21.77
2022-11-14T05:58:16.397Z,16.08
2022-11-14T05:59:18.493Z,18.15
2022-11-14T06:00:20.548Z,14.65
2022-11-14T06:01:22.341Z,23.33
2022-11-14T06:02:25.971Z,16.75
2022-11-14T06:03:32.145Z,15.82
2022-11-14T06:04:34.028Z,14.10
2022-11-14T06:05:36.969Z,15.65
2022-11-14T06:06:42.024Z,15.63
2022-11-14T06:07:44.104Z,15.85
2022-11-14T06:08:46.261Z,18.77
2022-11-14T06:09:49.501Z,15.70
2022-11-14T06:10:51.500Z,20.90
2022-11-14T06:11:53.520Z,12.38
2022-11-14T06:12:55.686Z,12.98
2022-11-14T06:13:58.367Z,14.93
2022-11-14T06:15:02.168Z,13.90
2022-11-14T06:16:06.549Z,13.32
2022-11-14T06:17:08.698Z,12.43
2022-11-14T06:18:10.665Z,10.95
2022-11-14T06:19:12.635Z,10.70
2022-11-14T06:20:16.106Z,11.18
2022-11-14T06:21:20.442Z,11.27
2022-11-14T06:22:22.289Z,10.68
2022-11-14T06:23:25.289Z,11.13
2022-11-14T06:24:27.097Z,12.02
2022-11-14T06:25:29.024Z,17.25
2022-11-14T06:26:32.374Z,10.65
2022-11-14T06:27:34.334Z,12.98
2022-11-14T06:28:36.352Z,15.15
2022-11-14T06:29:38.226Z,11.77
2022-11-14T06:30:41.403Z,12.20
2022-11-14T06:31:43.287Z,12.90
2022-11-14T06:32:45.056Z,14.13
2022-11-14T06:33:47.046Z,14.45
2022-11-14T06:34:48.932Z,14.00
2022-11-14T06:35:50.695Z,18.35
2022-11-14T06:36:52.592Z,13.55
2022-11-14T06:37:54.660Z,13.52
2022-11-14T06:38:56.574Z,14.35
2022-11-14T06:39:58.300Z,12.32
2022-11-14T06:41:08.486Z,14.40
2022-11-14T06:42:10.479Z,15.10
2022-11-14T06:43:12.609Z,14.90
2022-11-14T06:44:15.144Z,12.73
2022-11-14T06:45:17.186Z,17.42
2022-11-14T06:46:20.902Z,17.05
2022-11-14T06:47:22.830Z,18.17
2022-11-14T06:48:24.614Z,19.73
2022-11-14T06:49:28.073Z,18.40
2022-11-14T06:50:29.954Z,18.35
2022-11-14T06:51:32.085Z,19.30
2022-11-14T06:52:33.927Z,20.50
2022-11-14T06:53:37.158Z,21.02
2022-11-14T06:54:39.054Z,27.35
2022-11-14T06:55:40.803Z,19.10
2022-11-14T06:56:42.781Z,16.45
2022-11-14T06:57:44.914Z,20.70
2022-11-14T06:58:48.911Z,20.02
2022-11-14T06:59:50.806Z,18.17
2022-11-14T07:00:52.620Z,19.67
2022-11-14T07:01:54.586Z,25.13
2022-11-14T07:02:56.461Z,25.88
2022-11-14T07:04:00.671Z,20.98
2022-11-14T07:05:02.516Z,28.42
2022-11-14T07:06:05.787Z,32.30
2022-11-14T07:07:07.741Z,21.52
2022-11-14T07:08:09.816Z,25.05
2022-11-14T07:09:11.978Z,20.63
2022-11-14T07:10:13.979Z,26.67
2022-11-14T07:11:25.567Z,18.40
2022-11-14T07:12:28.752Z,18.20
2022-11-14T07:13:31.574Z,17.48
2022-11-14T07:14:33.463Z,18.17
2022-11-14T07:15:35.220Z,18.45
2022-11-14T07:16:36.985Z,21.95
2022-11-14T07:17:38.940Z,17.52
2022-11-14T07:18:40.993Z,24.60
2022-11-14T07:19:42.918Z,19.17
2022-11-14T07:20:44.824Z,17.73
2022-11-14T07:21:47.027Z,21.70
2022-11-14T07:22:49.005Z,20.25
2022-11-14T07:23:50.869Z,17.30
2022-11-14T07:24:52.752Z,18.88
2022-11-14T07:25:54.648Z,16.13
2022-11-14T07:26:56.381Z,19.55
2022-11-14T07:27:58.931Z,22.10
2022-11-14T07:29:02.744Z,17.08
2022-11-14T07:30:05.513Z,18.00
2022-11-14T07:31:10.033Z,14.32
2022-11-14T07:32:11.813Z,15.30
2022-11-14T07:33:13.713Z,14.55
2022-11-14T07:34:15.839Z,16.27
2022-11-14T07:35:17.725Z,15.02
2022-11-14T07:36:19.853Z,17.48
2022-11-14T07:37:21.947Z,20.05
2022-11-14T07:38:24.129Z,20.25
2022-11-14T07:39:25.992Z,18.08
2022-11-14T07:40:27.923Z,14.20
2022-11-14T07:41:29.803Z,12.25
2022-11-14T07:42:31.727Z,11.05
2022-11-14T07:43:33.730Z,12.25
2022-11-14T07:44:35.640Z,14.75
2022-11-14T07:45:37.372Z,10.57
2022-11-14T07:46:39.285Z,12.40
2022-11-14T07:47:41.181Z,11.18
2022-11-14T07:48:43.525Z,13.70
2022-11-14T07:49:45.487Z,11.70
2022-11-14T07:50:47.802Z,10.90
2022-11-14T07:51:49.838Z,13.23
2022-11-14T07:52:53.113Z,13.63
2022-11-14T07:53:56.391Z,12.48
2022-11-14T07:54:58.301Z,15.18
2022-11-14T07:56:06.142Z,14.07
2022-11-14T07:57:08.062Z,12.05
2022-11-14T07:58:10.100Z,11.80
2022-11-14T07:59:12.112Z,10.45
2022-11-14T08:00:15.415Z,14.80
2022-11-14T08:01:17.380Z,12.20
2022-11-14T08:02:19.134Z,22.85
2022-11-14T08:03:21.095Z,11.55
2022-11-14T08:04:22.844Z,13.15
2022-11-14T08:05:24.788Z,12.82
2022-11-14T08:06:26.795Z,15.07
2022-11-14T08:07:28.811Z,11.35
2022-11-14T08:08:31.360Z,11.25
2022-11-14T08:09:33.734Z,9.68
2022-11-14T08:10:35.756Z,10.73
2022-11-14T08:11:49.884Z,12.13
2022-11-14T08:13:25.156Z,13.88
2022-11-14T08:14:22.091Z,11.75
2022-11-14T08:15:24.097Z,10.10
2022-11-14T08:16:26.019Z,11.43
2022-11-14T08:17:27.919Z,10.23
2022-11-14T08:18:30.152Z,9.30
2022-11-14T08:19:32.197Z,11.30
2022-11-14T08:20:34.108Z,10.68
2022-11-14T08:21:36.785Z,12.32
2022-11-14T08:22:38.716Z,10.32
2022-11-14T08:23:40.625Z,10.90
2022-11-14T08:24:43.603Z,9.95
2022-11-14T08:25:45.759Z,14.00
2022-11-14T08:26:47.577Z,12.95
2022-11-14T08:27:49.487Z,13.23
2022-11-14T08:28:54.663Z,15.00
2022-11-14T08:29:56.571Z,15.98
2022-11-14T08:31:03.257Z,12.65
2022-11-14T08:32:05.256Z,11.38
2022-11-14T08:33:08.800Z,13.40
2022-11-14T08:34:10.601Z,13.00
2022-11-14T08:35:12.795Z,13.77
2022-11-14T08:36:14.787Z,13.07
2022-11-14T08:37:16.855Z,12.80
2022-11-14T08:38:18.772Z,11.90
2022-11-14T08:39:20.861Z,13.07
2022-11-14T08:40:22.828Z,10.63
2022-11-14T08:41:24.682Z,9.65
2022-11-14T08:42:26.483Z,9.68
2022-11-14T08:43:28.753Z,11.90
2022-11-14T08:44:30.799Z,13.15
2022-11-14T08:45:32.587Z,16.15
2022-11-14T08:46:34.483Z,10.45
2022-11-14T08:47:36.289Z,17.42
2022-11-14T08:48:38.066Z,11.32
2022-11-14T08:49:39.967Z,13.18
2022-11-14T08:50:41.728Z,15.00
2022-11-14T08:51:43.914Z,21.27
2022-11-14T08:52:51.345Z,19.90
2022-11-14T08:53:53.565Z,16.27
2022-11-14T08:54:55.486Z,17.85
2022-11-14T08:55:57.302Z,17.48
2022-11-14T08:56:59.399Z,18.00
2022-11-14T08:58:01.518Z,11.27
2022-11-14T08:59:04.738Z,9.80
2022-11-14T09:00:07.331Z,10.40
2022-11-14T09:01:10.255Z,11.82
2022-11-14T09:02:14.899Z,13.48
2022-11-14T09:03:16.916Z,12.27
2022-11-14T09:04:18.955Z,10.45
2022-11-14T09:05:21.420Z,10.50
2022-11-14T09:06:23.441Z,10.80
2022-11-14T09:07:25.384Z,10.38
2022-11-14T09:08:28.932Z,11.20
2022-11-14T09:09:31.145Z,10.18
2022-11-14T09:10:33.307Z,10.57
2022-11-14T09:11:35.254Z,11.43
2022-11-14T09:12:37.056Z,12.38
2022-11-14T09:13:39.019Z,14.07
2022-11-14T09:14:41.373Z,14.18
2022-11-14T09:15:44.095Z,15.20
2022-11-14T09:16:48.178Z,13.63
2022-11-14T09:17:54.558Z,11.32
2022-11-14T09:18:57.229Z,13.45
2022-11-14T09:19:59.472Z,18.58
2022-11-14T09:21:06.735Z,14.43
2022-11-14T09:22:11.525Z,12.55
2022-11-14T09:23:14.931Z,13.02
2022-11-14T09:24:16.976Z,14.73
2022-11-14T09:25:22.408Z,11.68
2022-11-14T09:26:24.423Z,12.63
2022-11-14T09:27:27.626Z,17.23
2022-11-14T09:28:29.634Z,12.70
2022-11-14T09:29:31.600Z,12.65
2022-11-14T09:30:35.289Z,13.52
2022-11-14T09:31:37.742Z,13.90
2022-11-14T09:32:40.277Z,15.73
2022-11-14T09:33:43.855Z,12.68
2022-11-14T09:34:45.885Z,15.35
2022-11-14T09:35:48.110Z,15.57
2022-11-14T09:36:51.646Z,15.27
2022-11-14T09:38:19.841Z,15.27
2022-11-14T09:39:21.934Z,13.77
2022-11-14T09:40:24.746Z,17.63
2022-11-14T09:41:26.883Z,14.18
2022-11-14T09:42:40.569Z,15.02
2022-11-14T09:44:20.045Z,16.27
2022-11-14T09:45:23.386Z,16.20
2022-11-14T09:46:33.052Z,17.33
2022-11-14T09:47:47.617Z,17.30
2022-11-14T09:48:52.417Z,17.70
2022-11-14T09:50:00.746Z,16.52
2022-11-14T09:51:10.644Z,14.93
2022-11-14T09:52:38.636Z,16.65
2022-11-14T09:53:48.864Z,15.75
2022-11-14T09:55:01.515Z,16.52
2022-11-14T09:56:04.722Z,17.52
2022-11-14T09:57:15.907Z,14.50
2022-11-14T09:58:22.183Z,15.02
2022-11-14T09:59:24.818Z,15.00
2022-11-14T10:00:48.779Z,12.82
2022-11-14T10:02:04.012Z,12.43
2022-11-14T10:03:33.414Z,10.45
2022-11-14T10:04:56.388Z,14.02
2022-11-14T10:06:22.937Z,12.05
2022-11-14T10:07:50.490Z,11.73
2022-11-14T10:09:11.361Z,11.82
2022-11-14T10:10:39.770Z,12.93
2022-11-14T10:11:46.481Z,9.57
2022-11-14T10:13:21.803Z,10.15
2022-11-14T10:14:49.115Z,10.50
2022-11-14T10:16:20.500Z,9.63
2022-11-14T10:17:48.608Z,9.82
2022-11-14T10:19:38.746Z,8.50
2022-11-14T10:21:01.943Z,8.63
2022-11-14T10:22:19.365Z,9.23
2022-11-14T10:23:52.000Z,9.52
2022-11-14T10:25:24.251Z,10.05
2022-11-14T10:26:31.263Z,8.57
2022-11-14T10:27:55.872Z,11.45
2022-11-14T10:29:37.132Z,8.07
2022-11-14T10:30:48.421Z,8.00
2022-11-14T10:33:20.591Z,6.43
2022-11-14T10:34:42.848Z,6.20
2022-11-14T10:36:14.082Z,5.80
2022-11-14T10:37:28.103Z,5.88
2022-11-14T10:38:43.717Z,5.05
2022-11-14T10:39:53.147Z,5.60
2022-11-14T10:41:00.767Z,5.65
2022-11-14T10:42:10.437Z,7.25
2022-11-14T10:43:23.225Z,4.88
2022-11-14T10:44:36.252Z,6.63
2022-11-14T10:45:46.993Z,5.28
2022-11-14T10:46:54.204Z,5.28
2022-11-14T10:48:13.258Z,5.28
2022-11-14T10:49:21.647Z,5.53
2022-11-14T10:50:28.851Z,6.40
2022-11-14T10:51:36.444Z,6.35
2022-11-14T10:52:47.279Z,5.80
2022-11-14T10:54:13.531Z,6.13
2022-11-14T10:55:18.382Z,4.90
2022-11-14T10:56:20.342Z,5.53
2022-11-14T10:57:23.480Z,4.90
2022-11-14T10:58:25.460Z,4.18
2022-11-14T10:59:47.630Z,4.10
2022-11-14T11:00:49.741Z,4.22
2022-11-14T11:01:55.879Z,4.82
2022-11-14T11:02:59.363Z,3.90
2022-11-14T11:04:47.266Z,4.38
2022-11-14T11:05:59.254Z,4.55
2022-11-14T11:07:07.351Z,5.28
2022-11-14T11:08:48.388Z,4.40
2022-11-14T11:10:42.562Z,4.63
2022-11-14T11:11:58.743Z,4.40
2022-11-14T11:13:04.976Z,4.85
2022-11-14T11:14:32.262Z,4.30
2022-11-14T11:15:42.716Z,4.10
2022-11-14T11:18:00.426Z,4.25
2022-11-14T11:20:44.047Z,4.20
2022-11-14T11:22:31.441Z,6.03
2022-11-14T11:24:01.035Z,5.70
2022-11-14T11:25:33.838Z,6.72
2022-11-14T11:27:00.001Z,13.55
2022-11-14T11:32:12.163Z,9.40
2022-11-14T11:35:27.777Z,7.93
2022-11-14T11:36:42.060Z,7.05
2022-11-14T11:37:59.611Z,7.70
2022-11-14T11:39:05.932Z,6.40
2022-11-14T11:40:24.491Z,6.22
2022-11-14T11:43:38.007Z,5.47
2022-11-14T11:44:58.839Z,4.22
2022-11-14T11:46:13.103Z,3.95
2022-11-14T11:47:21.879Z,4.40
2022-11-14T11:48:34.820Z,4.07
2022-11-14T11:49:57.339Z,4.10
2022-11-14T11:51:04.401Z,2.97
2022-11-14T11:52:18.723Z,3.63
2022-11-14T11:53:34.463Z,3.88
2022-11-14T11:54:50.920Z,3.60
2022-11-14T11:56:00.281Z,4.22
2022-11-14T11:57:09.214Z,3.70
2022-11-14T11:58:42.939Z,3.88
2022-11-14T11:59:51.138Z,4.75
2022-11-14T12:00:56.821Z,5.80
2022-11-14T12:01:58.685Z,6.25
2022-11-14T12:03:01.335Z,6.20
2022-11-14T12:04:04.570Z,5.82
2022-11-14T12:05:06.995Z,5.88
2022-11-14T12:06:15.434Z,5.78
2022-11-14T12:07:20.596Z,5.97
2022-11-14T12:08:24.896Z,7.93
2022-11-14T12:10:08.350Z,6.22
2022-11-14T12:10:59.758Z,5.18
2022-11-14T12:12:07.928Z,5.57
2022-11-14T12:13:31.744Z,5.10
2022-11-14T12:14:57.666Z,3.72
2022-11-14T12:16:23.784Z,3.47
2022-11-14T12:17:53.038Z,5.35
2022-11-14T12:19:34.472Z,7.13
2022-11-14T12:21:02.920Z,4.60
2022-11-14T12:22:37.123Z,4.85
2022-11-14T12:24:23.223Z,5.35
2022-11-14T12:26:15.383Z,4.90
2022-11-14T12:28:00.454Z,4.13
2022-11-14T12:29:14.273Z,3.67
2022-11-14T12:30:23.448Z,4.00
2022-11-14T12:31:31.179Z,4.53
2022-11-14T12:32:40.395Z,5.32
2022-11-14T12:33:50.979Z,6.72
2022-11-14T12:34:53.632Z,4.88
2022-11-14T12:36:00.714Z,5.38
2022-11-14T12:37:15.658Z,5.10
2022-11-14T12:38:19.877Z,5.90
2022-11-14T12:39:28.701Z,5.68
2022-11-14T12:40:36.322Z,5.10
2022-11-14T12:41:40.649Z,5.70
2022-11-14T12:42:48.239Z,5.38
2022-11-14T12:43:50.242Z,5.28
2022-11-14T12:44:52.522Z,4.93
2022-11-14T12:45:54.365Z,4.80
2022-11-14T12:47:05.329Z,5.05
2022-11-14T12:48:29.156Z,5.22
2022-11-14T12:49:49.652Z,4.30
2022-11-14T12:50:52.467Z,4.72
2022-11-14T12:51:54.328Z,4.10
2022-11-14T12:52:56.249Z,4.53
2022-11-14T12:53:58.561Z,3.75
2022-11-14T12:55:00.465Z,4.57
2022-11-14T12:56:35.444Z,4.22
2022-11-14T12:57:48.523Z,4.15
2022-11-14T12:59:09.527Z,4.03
2022-11-14T13:00:12.547Z,3.40
2022-11-14T13:01:14.486Z,3.80
2022-11-14T13:02:37.418Z,4.60
2022-11-14T13:04:12.773Z,4.07
2022-11-14T13:05:47.172Z,4.45
2022-11-14T13:07:04.031Z,4.32
2022-11-14T13:08:28.938Z,4.90
2022-11-14T13:09:36.039Z,5.47
2022-11-14T13:10:41.002Z,4.90
2022-11-14T13:12:06.594Z,4.55
2022-11-14T13:13:34.916Z,4.20
2022-11-14T13:15:13.435Z,4.25
2022-11-14T13:16:48.032Z,2.80
2022-11-14T13:18:22.214Z,3.40
2022-11-14T13:19:42.791Z,3.35
2022-11-14T13:21:03.223Z,2.63
2022-11-14T13:22:16.965Z,2.35
2022-11-14T13:23:28.198Z,1.85
2022-11-14T13:24:59.467Z,2.90
2022-11-14T13:26:10.631Z,3.30
2022-11-14T13:28:54.518Z,4.10
2022-11-14T13:29:58.261Z,4.72
2022-11-14T13:31:16.329Z,5.55
2022-11-14T13:32:41.158Z,6.50
2022-11-14T13:33:51.225Z,7.00
2022-11-14T13:35:04.728Z,8.65
2022-11-14T13:36:09.350Z,7.40
2022-11-14T13:37:24.746Z,9.07
2022-11-14T13:39:02.684Z,9.02
2022-11-14T13:40:23.530Z,9.68
2022-11-14T13:41:47.603Z,8.90
2022-11-14T13:43:11.568Z,7.97
2022-11-14T13:44:34.441Z,6.75
2022-11-14T13:45:54.087Z,6.28
2022-11-14T13:47:25.680Z,9.40
2022-11-14T13:48:30.404Z,6.90
2022-11-14T13:49:32.116Z,7.93
2022-11-14T13:50:40.799Z,7.88
2022-11-14T13:51:44.396Z,7.80
2022-11-14T13:52:48.795Z,7.22
2022-11-14T13:53:51.472Z,6.20
2022-11-14T13:54:54.369Z,9.00
2022-11-14T13:56:05.220Z,10.43
2022-11-14T13:57:23.994Z,7.68
2022-11-14T13:58:45.770Z,6.60
2022-11-14T14:00:07.177Z,5.43
2022-11-14T14:01:35.320Z,5.95
2022-11-14T14:03:12.344Z,5.68
2022-11-14T14:04:17.832Z,5.82
2022-11-14T14:05:25.219Z,6.05
2022-11-14T14:06:30.189Z,5.05
2022-11-14T14:07:58.744Z,5.35
2022-11-14T14:09:32.544Z,8.40
2022-11-14T14:11:01.353Z,7.38
2022-11-14T14:12:17.232Z,7.00
2022-11-14T14:13:24.230Z,8.20
2022-11-14T14:14:44.495Z,8.05
2022-11-14T14:16:30.720Z,9.40
2022-11-14T14:17:50.001Z,8.20
2022-11-14T14:19:06.358Z,10.35
2022-11-14T14:20:26.836Z,9.85
2022-11-14T14:21:32.272Z,15.10
2022-11-14T14:22:47.616Z,11.73
2022-11-14T14:24:04.409Z,7.53
2022-11-14T14:25:15.535Z,8.35
2022-11-14T14:26:47.125Z,8.07
2022-11-14T14:28:04.255Z,5.60
2022-11-14T14:29:26.337Z,5.72
2022-11-14T14:30:30.995Z,4.82
2022-11-14T14:31:42.031Z,4.38
2022-11-14T14:32:44.400Z,4.78
2022-11-14T14:33:48.236Z,5.35
2022-11-14T14:34:50.295Z,4.90
2022-11-14T14:35:53.655Z,4.63
2022-11-14T14:36:57.732Z,4.35
2022-11-14T14:38:00.044Z,4.72
2022-11-14T14:39:18.084Z,4.97
2022-11-14T14:40:29.167Z,4.90
2022-11-14T14:41:32.760Z,4.70
2022-11-14T14:42:40.853Z,4.60
2022-11-14T14:43:50.228Z,6.90